createdAt,value
2023-01-30T00:00:44.168Z,34.67
2023-01-30T00:03:47.200Z,36.80
2023-01-30T00:06:49.613Z,36.58
2023-01-30T00:09:52.005Z,33.47
2023-01-30T00:12:54.330Z,42.83
2023-01-30T00:15:56.852Z,36.92
2023-01-30T00:18:59.762Z,49.33
2023-01-30T00:22:02.172Z,50.55
2023-01-30T00:25:04.987Z,59.35
2023-01-30T00:28:08.521Z,53.80
2023-01-30T00:31:11.055Z,65.17
2023-01-30T00:34:13.624Z,58.75
2023-01-30T00:37:16.028Z,61.22
2023-01-30T00:40:18.960Z,59.13
2023-01-30T00:43:40.388Z,56.90
2023-01-30T00:47:01.483Z,62.40
2023-01-30T00:50:04.863Z,58.53
2023-01-30T00:53:07.239Z,58.25
2023-01-30T00:56:09.639Z,57.00
2023-01-30T00:59:12.424Z,51.42
2023-01-30T01:02:14.832Z,49.57
2023-01-30T01:05:17.756Z,48.50
2023-01-30T01:08:22.602Z,54.30
2023-01-30T01:11:25.216Z,58.33
2023-01-30T01:14:27.731Z,50.88
2023-01-30T01:17:30.275Z,51.95
2023-01-30T01:20:33.695Z,46.28
2023-01-30T01:23:36.116Z,44.05
2023-01-30T01:26:38.638Z,51.30
2023-01-30T01:29:41.161Z,56.30
2023-01-30T01:32:44.036Z,56.27
2023-01-30T01:35:47.809Z,53.05
2023-01-30T01:38:51.662Z,54.58
2023-01-30T01:41:54.076Z,55.30
2023-01-30T01:45:16.952Z,53.60
2023-01-30T01:48:27.664Z,53.13
2023-01-30T01:51:52.969Z,50.30
2023-01-30T01:55:01.119Z,47.83
2023-01-30T01:58:10.300Z,45.30
2023-01-30T02:01:13.929Z,40.53
2023-01-30T02:04:36.576Z,43.57
2023-01-30T02:07:52.485Z,40.17
2023-01-30T02:11:17.199Z,37.75
2023-01-30T02:14:20.827Z,40.13
2023-01-30T02:17:24.419Z,40.10
2023-01-30T02:20:32.177Z,38.88
2023-01-30T02:23:59.559Z,37.70
2023-01-30T02:27:15.793Z,40.95
2023-01-30T02:30:56.023Z,37.22
2023-01-30T02:34:01.157Z,38.78
2023-01-30T02:37:38.171Z,38.00
2023-01-30T02:41:16.176Z,37.42
2023-01-30T02:44:33.297Z,33.58
2023-01-30T02:47:50.466Z,32.03
2023-01-30T02:51:01.977Z,35.47
2023-01-30T02:54:08.069Z,32.13
2023-01-30T02:57:21.611Z,32.03
2023-01-30T03:00:40.066Z,28.50
2023-01-30T03:04:00.947Z,31.30
2023-01-30T03:07:25.092Z,36.50
2023-01-30T03:10:33.692Z,32.57
2023-01-30T03:13:46.920Z,33.45
2023-01-30T03:16:54.406Z,35.60
2023-01-30T03:19:58.870Z,37.77
2023-01-30T03:23:01.802Z,35.50
2023-01-30T03:26:08.216Z,38.60
2023-01-30T03:29:11.507Z,38.90
2023-01-30T03:32:13.900Z,38.60
2023-01-30T03:35:17.962Z,36.75
2023-01-30T03:38:20.817Z,38.63
2023-01-30T03:41:25.632Z,39.43
2023-01-30T03:44:29.361Z,38.20
2023-01-30T03:47:31.708Z,43.17
2023-01-30T03:50:34.356Z,36.90
2023-01-30T03:53:36.864Z,36.67
2023-01-30T03:56:40.638Z,34.83
2023-01-30T03:59:43.976Z,37.05
2023-01-30T04:02:50.182Z,36.45
2023-01-30T04:05:53.480Z,34.67
2023-01-30T04:08:56.073Z,38.40
2023-01-30T04:12:18.737Z,31.77
2023-01-30T04:15:28.176Z,36.15
2023-01-30T04:18:53.696Z,31.75
2023-01-30T04:21:58.684Z,33.00
2023-01-30T04:25:02.183Z,35.20
2023-01-30T04:28:06.128Z,31.63
2023-01-30T04:31:12.156Z,29.80
2023-01-30T04:34:20.100Z,28.35
2023-01-30T04:37:22.516Z,29.75
2023-01-30T04:40:25.288Z,24.92
2023-01-30T04:43:28.925Z,23.50
2023-01-30T04:46:34.231Z,23.05
2023-01-30T04:49:36.838Z,22.20
2023-01-30T04:52:41.269Z,24.57
2023-01-30T04:55:44.476Z,20.10
2023-01-30T04:58:46.992Z,18.38
2023-01-30T05:01:50.370Z,19.65
2023-01-30T05:04:52.841Z,21.30
2023-01-30T05:07:55.524Z,22.30
2023-01-30T05:10:58.301Z,20.10
2023-01-30T05:14:00.893Z,20.23
2023-01-30T05:17:03.240Z,26.23
2023-01-30T05:20:07.386Z,24.70
2023-01-30T05:23:09.761Z,25.93
2023-01-30T05:26:14.065Z,21.30
2023-01-30T05:29:16.525Z,25.40
2023-01-30T05:32:19.966Z,24.77
2023-01-30T05:35:22.377Z,27.20
2023-01-30T05:38:25.389Z,25.85
2023-01-30T05:41:27.815Z,25.80
2023-01-30T05:44:30.264Z,24.60
2023-01-30T05:47:32.678Z,23.00
2023-01-30T05:50:35.148Z,31.20
2023-01-30T05:53:37.549Z,30.53
2023-01-30T05:56:40.092Z,29.88
2023-01-30T05:59:43.075Z,25.33
2023-01-30T06:02:45.423Z,25.55
2023-01-30T06:05:47.780Z,20.60
2023-01-30T06:08:54.352Z,26.08
2023-01-30T06:11:56.756Z,26.83
2023-01-30T06:14:59.187Z,20.90
2023-01-30T06:18:01.642Z,30.40
2023-01-30T06:21:04.737Z,23.90
2023-01-30T06:24:07.273Z,30.40
2023-01-30T06:27:09.688Z,29.55
2023-01-30T06:30:12.800Z,27.42
2023-01-30T06:33:15.393Z,23.90
2023-01-30T06:36:17.790Z,27.23
2023-01-30T06:39:20.205Z,24.20
2023-01-30T06:42:22.638Z,22.55
2023-01-30T06:45:24.992Z,26.10
2023-01-30T06:48:27.632Z,28.02
2023-01-30T06:51:30.662Z,24.60
2023-01-30T06:54:33.085Z,19.87
2023-01-30T06:57:35.454Z,24.55
2023-01-30T07:00:40.240Z,27.33
2023-01-30T07:03:42.695Z,33.95
2023-01-30T07:06:46.848Z,24.33
2023-01-30T07:10:02.120Z,24.80
2023-01-30T07:13:09.301Z,24.58
2023-01-30T07:16:11.727Z,26.30
2023-01-30T07:19:14.165Z,26.48
2023-01-30T07:22:16.991Z,30.30
2023-01-30T07:25:21.346Z,22.97
2023-01-30T07:28:24.314Z,29.10
2023-01-30T07:31:26.727Z,23.25
2023-01-30T07:34:29.690Z,19.45
2023-01-30T07:37:32.072Z,26.35
2023-01-30T07:40:34.701Z,28.48
2023-01-30T07:43:37.044Z,26.67
2023-01-30T07:46:39.620Z,27.60
2023-01-30T07:49:42.191Z,28.17
2023-01-30T07:52:45.076Z,18.35
2023-01-30T07:55:47.721Z,21.13
2023-01-30T07:58:51.208Z,32.83
2023-01-30T08:01:53.582Z,32.53
2023-01-30T08:04:56.087Z,33.25
2023-01-30T08:07:58.589Z,32.47
2023-01-30T08:11:01.942Z,22.80
2023-01-30T08:14:04.341Z,30.73
2023-01-30T08:17:07.058Z,19.53
2023-01-30T08:20:10.054Z,29.65
2023-01-30T08:23:12.506Z,21.77
2023-01-30T08:26:15.088Z,20.63
2023-01-30T08:29:17.836Z,30.20
2023-01-30T08:32:20.628Z,19.30
2023-01-30T08:35:23.279Z,19.63
2023-01-30T08:38:25.848Z,12.43
2023-01-30T08:41:28.406Z,19.92
2023-01-30T08:44:30.818Z,25.80
2023-01-30T08:47:35.500Z,16.97
2023-01-30T08:50:37.977Z,21.48
2023-01-30T08:53:40.490Z,21.75
2023-01-30T08:56:42.837Z,16.50
2023-01-30T08:59:45.832Z,22.33
2023-01-30T09:02:48.358Z,13.38
2023-01-30T09:05:56.286Z,22.52
2023-01-30T09:09:00.357Z,14.18
2023-01-30T09:12:02.728Z,16.00
2023-01-30T09:15:05.909Z,22.35
2023-01-30T09:18:08.298Z,19.93
2023-01-30T09:21:12.734Z,16.33
2023-01-30T09:24:15.458Z,16.92
2023-01-30T09:27:17.845Z,19.30
2023-01-30T09:30:20.659Z,18.95
2023-01-30T09:33:23.308Z,22.65
2023-01-30T09:36:25.780Z,21.20
2023-01-30T09:39:29.317Z,21.38
2023-01-30T09:43:28.374Z,31.13
2023-01-30T09:46:53.949Z,23.27
2023-01-30T09:50:14.476Z,18.40
2023-01-30T09:54:01.789Z,22.27
2023-01-30T09:57:25.187Z,19.42
2023-01-30T10:00:44.497Z,25.00
2023-01-30T10:04:16.494Z,20.48
2023-01-30T10:07:46.285Z,18.00
2023-01-30T10:11:09.006Z,38.47
2023-01-30T10:14:49.642Z,34.72
2023-01-30T10:18:14.695Z,25.45
2023-01-30T10:21:55.157Z,18.40
2023-01-30T10:25:03.260Z,24.57
2023-01-30T10:28:27.930Z,24.20
2023-01-30T10:31:37.189Z,26.60
2023-01-30T10:34:43.426Z,27.47
2023-01-30T10:37:53.250Z,20.95
2023-01-30T10:41:01.193Z,20.45
2023-01-30T10:44:11.361Z,30.92
2023-01-30T10:47:48.272Z,31.48
2023-01-30T10:50:57.103Z,28.48
2023-01-30T10:54:05.278Z,32.70
2023-01-30T10:57:29.733Z,31.93
2023-01-30T11:00:38.832Z,21.77
2023-01-30T11:03:53.663Z,22.42
2023-01-30T11:06:57.162Z,19.70
2023-01-30T11:10:00.056Z,18.92
2023-01-30T11:13:20.385Z,23.27
2023-01-30T11:16:22.887Z,15.25
2023-01-30T11:19:32.865Z,19.30
2023-01-30T11:22:36.802Z,25.67
2023-01-30T11:25:52.836Z,21.08
2023-01-30T11:29:25.962Z,19.73
2023-01-30T11:32:29.607Z,19.38
2023-01-30T11:35:44.139Z,24.83
2023-01-30T11:38:57.570Z,22.67
2023-01-30T11:42:03.556Z,23.35
2023-01-30T11:45:20.343Z,23.58
2023-01-30T11:48:33.753Z,22.52
2023-01-30T11:51:54.961Z,15.18
2023-01-30T11:55:08.706Z,26.08
2023-01-30T11:58:11.277Z,20.88
2023-01-30T12:01:15.034Z,29.13
2023-01-30T12:04:18.400Z,19.30
2023-01-30T12:07:24.765Z,19.95
2023-01-30T12:10:31.174Z,24.30
2023-01-30T12:13:39.362Z,17.85
2023-01-30T12:16:46.746Z,20.88
2023-01-30T12:20:05.757Z,20.08
2023-01-30T12:23:08.064Z,25.20
2023-01-30T12:26:30.110Z,26.33
2023-01-30T12:30:19.316Z,26.15
2023-01-30T12:33:22.906Z,29.37
2023-01-30T12:36:43.587Z,28.38
2023-01-30T12:40:08.569Z,27.67
2023-01-30T12:43:42.110Z,22.10
2023-01-30T12:46:44.384Z,18.55
2023-01-30T12:49:59.230Z,24.80
2023-01-30T12:53:25.775Z,27.77
2023-01-30T12:56:54.273Z,22.98
2023-01-30T12:59:56.625Z,31.27
2023-01-30T13:03:22.517Z,19.85
2023-01-30T13:06:47.492Z,23.37
2023-01-30T13:09:52.582Z,28.00
2023-01-30T13:13:16.281Z,27.77
2023-01-30T13:16:43.046Z,21.00
2023-01-30T13:20:15.703Z,22.58
2023-01-30T13:23:20.524Z,25.58
2023-01-30T13:26:28.664Z,26.02
2023-01-30T13:29:37.079Z,29.05
2023-01-30T13:32:43.418Z,32.75
2023-01-30T13:35:56.532Z,35.83
2023-01-30T13:39:10.291Z,22.03
2023-01-30T13:42:36.784Z,52.05
2023-01-30T13:45:43.579Z,31.80
2023-01-30T13:49:36.861Z,29.43
2023-01-30T13:52:52.028Z,30.00
2023-01-30T13:56:27.168Z,35.70
2023-01-30T13:59:52.609Z,34.30
2023-01-30T14:03:04.095Z,30.90
2023-01-30T14:06:11.292Z,31.80
2023-01-30T14:09:28.918Z,50.15
2023-01-30T14:12:53.742Z,49.50
2023-01-30T14:16:01.698Z,35.25
2023-01-30T14:19:38.128Z,24.80
2023-01-30T14:23:17.257Z,28.13
2023-01-30T14:26:48.467Z,29.38
2023-01-30T14:29:52.436Z,28.63
2023-01-30T14:32:55.764Z,40.60
2023-01-30T14:36:00.958Z,42.00
2023-01-30T14:39:40.943Z,24.55
2023-01-30T14:42:45.347Z,22.85
2023-01-30T14:45:53.440Z,21.40
2023-01-30T14:49:13.466Z,27.35
2023-01-30T14:52:34.594Z,24.55
2023-01-30T14:55:36.943Z,26.83
2023-01-30T14:58:39.604Z,18.25
2023-01-30T15:02:02.236Z,24.52
2023-01-30T15:05:09.748Z,23.30
2023-01-30T15:08:20.350Z,35.38
2023-01-30T15:11:32.106Z,30.60
2023-01-30T15:14:54.044Z,21.40
2023-01-30T15:18:08.329Z,23.80
2023-01-30T15:21:23.064Z,30.63
2023-01-30T15:24:59.009Z,21.52
2023-01-30T15:28:19.170Z,21.97
2023-01-30T15:31:24.893Z,26.17
2023-01-30T15:34:32.395Z,16.80
2023-01-30T15:37:38.925Z,32.15
2023-01-30T15:40:42.001Z,20.85
2023-01-30T15:44:28.747Z,31.38
2023-01-30T15:47:58.917Z,28.85
2023-01-30T15:51:02.564Z,35.23
2023-01-30T15:54:10.910Z,25.65
2023-01-30T15:57:21.417Z,28.15
2023-01-30T16:00:30.251Z,31.70
2023-01-30T16:03:36.917Z,28.65
2023-01-30T16:06:39.384Z,33.83
2023-01-30T16:09:45.550Z,30.13
2023-01-30T16:12:56.148Z,29.52
2023-01-30T16:16:15.921Z,29.38
2023-01-30T16:19:28.227Z,39.15
2023-01-30T16:22:33.806Z,38.60
2023-01-30T16:25:36.212Z,37.00
2023-01-30T16:28:38.672Z,39.03
2023-01-30T16:31:41.800Z,45.07
2023-01-30T16:34:44.357Z,36.28
2023-01-30T16:37:47.056Z,33.90
2023-01-30T16:40:49.405Z,25.67
2023-01-30T16:44:10.199Z,42.30
2023-01-30T16:47:27.470Z,70.90
2023-01-30T16:50:29.905Z,49.95
2023-01-30T16:53:33.781Z,42.10
2023-01-30T16:56:36.352Z,40.13
2023-01-30T16:59:39.380Z,44.67
2023-01-30T17:02:49.280Z,50.90
2023-01-30T17:05:51.875Z,87.95
2023-01-30T17:08:58.950Z,37.75
2023-01-30T17:12:01.664Z,27.52
2023-01-30T17:15:10.112Z,28.70
2023-01-30T17:18:13.313Z,28.95
2023-01-30T17:21:16.502Z,31.23
2023-01-30T17:24:21.758Z,32.30
2023-01-30T17:27:27.289Z,30.05
2023-01-30T17:30:30.706Z,30.10
2023-01-30T17:33:33.672Z,28.97
2023-01-30T17:36:36.181Z,28.17
2023-01-30T17:39:38.685Z,26.27
2023-01-30T17:42:41.297Z,30.67
2023-01-30T17:45:44.003Z,26.65
2023-01-30T17:48:46.685Z,29.67
2023-01-30T17:51:52.231Z,31.60
2023-01-30T17:54:54.589Z,38.03
2023-01-30T17:57:57.313Z,32.17
2023-01-30T18:00:59.921Z,35.90
2023-01-30T18:04:02.514Z,37.60
2023-01-30T18:07:06.406Z,49.63
2023-01-30T18:10:17.180Z,72.55
2023-01-30T18:13:20.585Z,51.22
2023-01-30T18:16:30.991Z,37.65
2023-01-30T18:19:33.792Z,34.75
2023-01-30T18:22:36.493Z,29.60
2023-01-30T18:25:38.859Z,28.93
2023-01-30T18:28:41.608Z,35.85
2023-01-30T18:31:44.229Z,69.93
2023-01-30T18:34:47.089Z,55.40
2023-01-30T18:37:50.232Z,40.13
2023-01-30T18:40:52.816Z,29.73
2023-01-30T18:44:00.486Z,28.77
2023-01-30T18:47:03.060Z,33.92
2023-01-30T18:50:06.064Z,30.13
2023-01-30T18:53:08.950Z,30.27
2023-01-30T18:56:13.473Z,30.60
2023-01-30T18:59:16.086Z,36.13
2023-01-30T19:02:18.735Z,37.20
2023-01-30T19:05:21.682Z,43.90
2023-01-30T19:08:25.954Z,44.78
2023-01-30T19:11:46.883Z,50.30
2023-01-30T19:14:49.997Z,43.55
2023-01-30T19:17:52.598Z,42.45
2023-01-30T19:20:58.741Z,50.00
2023-01-30T19:24:11.954Z,43.95
2023-01-30T19:27:14.691Z,38.63
2023-01-30T19:30:18.476Z,42.33
2023-01-30T19:33:21.580Z,40.38
2023-01-30T19:36:26.700Z,135.37
2023-01-30T19:39:29.346Z,94.90
2023-01-30T19:42:31.951Z,78.97
2023-01-30T19:45:34.669Z,72.38
2023-01-30T19:48:39.330Z,50.63
2023-01-30T19:51:42.491Z,46.17
2023-01-30T19:54:47.001Z,51.17
2023-01-30T19:57:49.657Z,49.43
2023-01-30T20:00:52.407Z,53.70
2023-01-30T20:03:57.576Z,58.53
2023-01-30T20:07:01.308Z,58.50
2023-01-30T20:10:06.996Z,66.30
2023-01-30T20:13:09.714Z,74.95
2023-01-30T20:16:20.846Z,78.93
2023-01-30T20:19:23.595Z,72.13
2023-01-30T20:22:26.283Z,63.15
2023-01-30T20:25:30.071Z,66.45
2023-01-30T20:28:33.391Z,64.40
2023-01-30T20:31:38.534Z,55.63
2023-01-30T20:34:40.890Z,45.90
2023-01-30T20:37:43.487Z,37.70
2023-01-30T20:40:47.311Z,44.35
2023-01-30T20:43:52.341Z,50.70
2023-01-30T20:46:56.572Z,50.00
2023-01-30T20:49:59.141Z,55.53
2023-01-30T20:53:01.905Z,36.97
2023-01-30T20:56:05.420Z,34.72
2023-01-30T20:59:07.889Z,31.20
2023-01-30T21:02:10.386Z,32.72
2023-01-30T21:05:12.986Z,35.08
2023-01-30T21:08:15.390Z,33.53
2023-01-30T21:11:20.122Z,37.33
2023-01-30T21:14:23.005Z,45.70
2023-01-30T21:17:28.186Z,36.95
2023-01-30T21:20:30.932Z,34.38
2023-01-30T21:23:33.622Z,30.85
2023-01-30T21:26:39.384Z,33.50
2023-01-30T21:29:42.152Z,37.50
2023-01-30T21:32:44.536Z,35.95
2023-01-30T21:35:47.200Z,38.70
2023-01-30T21:39:08.363Z,34.83
2023-01-30T21:42:29.081Z,34.05
2023-01-30T21:45:31.886Z,39.47
2023-01-30T21:48:34.642Z,41.10
2023-01-30T21:51:37.733Z,42.22
2023-01-30T21:54:40.142Z,59.92
2023-01-30T21:57:42.493Z,61.65
2023-01-30T22:00:45.578Z,56.70
2023-01-30T22:03:48.451Z,44.50
2023-01-30T22:06:50.816Z,52.22
2023-01-30T22:09:53.236Z,59.77
2023-01-30T22:12:55.592Z,45.85
2023-01-30T22:16:02.830Z,44.30
2023-01-30T22:19:05.348Z,38.35
2023-01-30T22:22:07.820Z,40.20
2023-01-30T22:25:10.323Z,43.45
2023-01-30T22:28:12.800Z,50.15
2023-01-30T22:31:17.665Z,44.47
2023-01-30T22:34:20.468Z,74.70
2023-01-30T22:37:22.824Z,76.38
2023-01-30T22:40:25.177Z,59.20
2023-01-30T22:43:29.408Z,47.70
2023-01-30T22:46:34.904Z,40.88
2023-01-30T22:49:37.267Z,38.78
2023-01-30T22:52:39.733Z,45.80
2023-01-30T22:55:42.095Z,50.22
2023-01-30T22:58:45.581Z,47.03
2023-01-30T23:01:50.744Z,51.50
2023-01-30T23:04:53.373Z,47.30
2023-01-30T23:07:55.768Z,42.40
2023-01-30T23:11:04.145Z,44.07
2023-01-30T23:14:09.402Z,30.73
2023-01-30T23:17:30.657Z,28.15
2023-01-30T23:20:33.033Z,24.35
2023-01-30T23:23:35.597Z,26.92
2023-01-30T23:26:40.879Z,22.42
2023-01-30T23:29:43.619Z,26.98
2023-01-30T23:32:46.004Z,23.00
2023-01-30T23:35:48.388Z,28.85
2023-01-30T23:38:52.797Z,30.65
2023-01-30T23:41:55.176Z,34.37
2023-01-30T23:44:57.609Z,34.05
2023-01-30T23:47:59.933Z,32.85
2023-01-30T23:51:03.124Z,38.10
2023-01-30T23:54:06.445Z,36.60
2023-01-30T23:57:08.816Z,32.58
